sensor_id;sensor_type;location;lat;lon;timestamp;pressure;altitude;pressure_sealevel;temperature;humidity
58373;BME280;44177;43.356;27.672;2023-06-22T00:01:50;98410.44;;;17.52;88.97
58373;BME280;44177;43.356;27.672;2023-06-22T00:04:16;98406.09;;;17.51;89.03
58373;BME280;44177;43.356;27.672;2023-06-22T00:06:41;98406.88;;;17.48;89.02
58373;BME280;44177;43.356;27.672;2023-06-22T00:09:07;98414.75;;;17.46;89.22
58373;BME280;44177;43.356;27.672;2023-06-22T00:11:33;98406.81;;;17.37;88.96
58373;BME280;44177;43.356;27.672;2023-06-22T00:14:02;98420.59;;;17.37;88.91
58373;BME280;44177;43.356;27.672;2023-06-22T00:16:27;98418.63;;;17.38;89.18
58373;BME280;44177;43.356;27.672;2023-06-22T00:18:53;98421.81;;;17.40;89.37
58373;BME280;44177;43.356;27.672;2023-06-22T00:21:18;98418.63;;;17.38;89.07
58373;BME280;44177;43.356;27.672;2023-06-22T00:23:46;98415.84;;;17.30;88.87
58373;BME280;44177;43.356;27.672;2023-06-22T00:26:12;98418.59;;;17.30;88.26
58373;BME280;44177;43.356;27.672;2023-06-22T00:28:38;98420.19;;;17.31;88.58
58373;BME280;44177;43.356;27.672;2023-06-22T00:31:04;98422.53;;;17.29;88.33
58373;BME280;44177;43.356;27.672;2023-06-22T00:33:29;98427.25;;;17.32;89.35
58373;BME280;44177;43.356;27.672;2023-06-22T00:35:55;98402.03;;;17.19;89.82
58373;BME280;44177;43.356;27.672;2023-06-22T00:38:20;98424.13;;;17.34;90.07
58373;BME280;44177;43.356;27.672;2023-06-22T00:40:46;98424.91;;;17.34;90.47
58373;BME280;44177;43.356;27.672;2023-06-22T00:43:11;98424.56;;;17.36;90.35
58373;BME280;44177;43.356;27.672;2023-06-22T00:45:38;98426.50;;;17.32;90.03
58373;BME280;44177;43.356;27.672;2023-06-22T00:48:04;98422.94;;;17.31;89.61
58373;BME280;44177;43.356;27.672;2023-06-22T00:50:32;98420.97;;;17.28;89.68
58373;BME280;44177;43.356;27.672;2023-06-22T00:53:06;98428.06;;;17.29;89.75
58373;BME280;44177;43.356;27.672;2023-06-22T00:55:35;98422.53;;;17.29;90.06
58373;BME280;44177;43.356;27.672;2023-06-22T00:58:03;98420.97;;;17.28;88.92
58373;BME280;44177;43.356;27.672;2023-06-22T01:00:33;98423.31;;;17.26;88.72
58373;BME280;44177;43.356;27.672;2023-06-22T01:02:59;98424.47;;;17.25;89.01
58373;BME280;44177;43.356;27.672;2023-06-22T01:05:24;98429.97;;;17.25;89.56
58373;BME280;44177;43.356;27.672;2023-06-22T01:10:41;98417.44;;;17.31;90.54
58373;BME280;44177;43.356;27.672;2023-06-22T01:13:21;98410.75;;;17.36;91.59
58373;BME280;44177;43.356;27.672;2023-06-22T01:16:02;98410.78;;;17.43;92.42
58373;BME280;44177;43.356;27.672;2023-06-22T01:18:31;98406.03;;;17.36;92.93
58373;BME280;44177;43.356;27.672;2023-06-22T01:20:58;98399.75;;;17.36;93.57
58373;BME280;44177;43.356;27.672;2023-06-22T01:26:38;98413.09;;;17.30;94.07
58373;BME280;44177;43.356;27.672;2023-06-22T01:29:05;98409.16;;;17.31;93.33
58373;BME280;44177;43.356;27.672;2023-06-22T01:31:33;98411.13;;;17.34;92.84
58373;BME280;44177;43.356;27.672;2023-06-22T01:34:03;98409.16;;;17.31;92.94
58373;BME280;44177;43.356;27.672;2023-06-22T01:36:31;98407.97;;;17.32;92.60
58373;BME280;44177;43.356;27.672;2023-06-22T01:38:57;98402.81;;;17.24;92.17
58373;BME280;44177;43.356;27.672;2023-06-22T01:41:28;98420.97;;;17.28;91.10
58373;BME280;44177;43.356;27.672;2023-06-22T01:43:55;98417.78;;;17.23;90.33
58373;BME280;44177;43.356;27.672;2023-06-22T01:46:21;98411.44;;;17.11;90.18
58373;BME280;44177;43.356;27.672;2023-06-22T01:48:47;98425.59;;;17.17;90.23
58373;BME280;44177;43.356;27.672;2023-06-22T01:51:13;98419.31;;;17.16;90.14
58373;BME280;44177;43.356;27.672;2023-06-22T01:53:39;98429.56;;;17.16;90.04
58373;BME280;44177;43.356;27.672;2023-06-22T01:56:05;98424.84;;;17.20;89.97
58373;BME280;44177;43.356;27.672;2023-06-22T01:58:31;98425.59;;;17.17;90.44
58373;BME280;44177;43.356;27.672;2023-06-22T02:01:06;98420.88;;;17.14;90.25
58373;BME280;44177;43.356;27.672;2023-06-22T02:03:37;98426.03;;;17.19;90.36
58373;BME280;44177;43.356;27.672;2023-06-22T02:06:12;98422.50;;;17.18;90.59
58373;BME280;44177;43.356;27.672;2023-06-22T02:08:41;98426.03;;;17.23;90.75
58373;BME280;44177;43.356;27.672;2023-06-22T02:11:13;98434.69;;;17.21;90.28
58373;BME280;44177;43.356;27.672;2023-06-22T02:13:40;98425.63;;;17.20;90.28
58373;BME280;44177;43.356;27.672;2023-06-22T02:16:10;98424.81;;;17.13;90.42
58373;BME280;44177;43.356;27.672;2023-06-22T02:18:36;98422.50;;;17.18;90.69
58373;BME280;44177;43.356;27.672;2023-06-22T02:21:02;98421.28;;;17.12;90.86
58373;BME280;44177;43.356;27.672;2023-06-22T02:23:28;98426.00;;;17.15;90.44
58373;BME280;44177;43.356;27.672;2023-06-22T02:25:54;98427.97;;;17.11;90.20
58373;BME280;44177;43.356;27.672;2023-06-22T02:28:19;98427.16;;;17.11;90.07
58373;BME280;44177;43.356;27.672;2023-06-22T02:30:45;98430.31;;;17.13;89.62
58373;BME280;44177;43.356;27.672;2023-06-22T02:33:11;98437.47;;;17.21;89.75
58373;BME280;44177;43.356;27.672;2023-06-22T02:35:36;98446.91;;;17.20;89.81
58373;BME280;44177;43.356;27.672;2023-06-22T02:38:03;98449.25;;;17.18;89.96
58373;BME280;44177;43.356;27.672;2023-06-22T02:40:29;98455.16;;;17.20;90.33
58373;BME280;44177;43.356;27.672;2023-06-22T02:42:56;98456.31;;;17.15;90.61
58373;BME280;44177;43.356;27.672;2023-06-22T02:45:23;98457.94;;;17.20;90.76
58373;BME280;44177;43.356;27.672;2023-06-22T02:47:48;98458.75;;;17.24;90.78
58373;BME280;44177;43.356;27.672;2023-06-22T02:50:14;98454.03;;;17.28;90.81
58373;BME280;44177;43.356;27.672;2023-06-22T02:52:39;98464.31;;;17.31;90.57
58373;BME280;44177;43.356;27.672;2023-06-22T02:55:06;98457.25;;;17.38;90.45
58373;BME280;44177;43.356;27.672;2023-06-22T02:57:32;98454.44;;;17.27;90.94
58373;BME280;44177;43.356;27.672;2023-06-22T02:59:58;98450.91;;;17.33;91.22
58373;BME280;44177;43.356;27.672;2023-06-22T03:02:24;98450.16;;;17.36;91.44
58373;BME280;44177;43.356;27.672;2023-06-22T03:04:49;98440.69;;;17.34;91.41
58373;BME280;44177;43.356;27.672;2023-06-22T03:07:15;98460.81;;;17.45;90.83
58373;BME280;44177;43.356;27.672;2023-06-22T03:09:42;98454.16;;;17.50;90.82
58373;BME280;44177;43.356;27.672;2023-06-22T03:12:08;98450.22;;;17.55;90.42
58373;BME280;44177;43.356;27.672;2023-06-22T03:14:34;98453.41;;;17.60;90.39
58373;BME280;44177;43.356;27.672;2023-06-22T03:16:59;98447.91;;;17.64;89.83
58373;BME280;44177;43.356;27.672;2023-06-22T03:19:29;98445.94;;;17.64;89.68
58373;BME280;44177;43.356;27.672;2023-06-22T03:21:57;98457.41;;;17.74;89.91
58373;BME280;44177;43.356;27.672;2023-06-22T03:24:22;98462.91;;;17.74;90.37
58373;BME280;44177;43.356;27.672;2023-06-22T03:26:48;98459.00;;;17.78;90.09
58373;BME280;44177;43.356;27.672;2023-06-22T03:29:13;98466.13;;;17.87;90.01
58373;BME280;44177;43.356;27.672;2023-06-22T03:31:39;98469.28;;;17.92;89.79
58373;BME280;44177;43.356;27.672;2023-06-22T03:34:04;98458.25;;;17.92;89.56
58373;BME280;44177;43.356;27.672;2023-06-22T03:36:30;98468.56;;;18.03;89.35
58373;BME280;44177;43.356;27.672;2023-06-22T03:38:55;98461.47;;;18.02;89.28
58373;BME280;44177;43.356;27.672;2023-06-22T03:41:21;98474.91;;;18.14;89.56
58373;BME280;44177;43.356;27.672;2023-06-22T03:43:46;98477.69;;;18.25;89.12
58373;BME280;44177;43.356;27.672;2023-06-22T03:46:11;98473.34;;;18.31;88.19
58373;BME280;44177;43.356;27.672;2023-06-22T03:48:37;98463.09;;;18.24;88.86
58373;BME280;44177;43.356;27.672;2023-06-22T03:51:03;98467.81;;;18.31;88.65
58373;BME280;44177;43.356;27.672;2023-06-22T03:53:29;98472.56;;;18.34;88.98
58373;BME280;44177;43.356;27.672;2023-06-22T03:55:55;98487.22;;;18.45;88.75
58373;BME280;44177;43.356;27.672;2023-06-22T03:58:21;98491.16;;;18.55;88.74
58373;BME280;44177;43.356;27.672;2023-06-22T04:00:50;98493.16;;;18.66;88.59
58373;BME280;44177;43.356;27.672;2023-06-22T04:03:16;98488.00;;;18.75;88.74
58373;BME280;44177;43.356;27.672;2023-06-22T04:05:44;98491.97;;;18.81;88.68
58373;BME280;44177;43.356;27.672;2023-06-22T04:08:10;98489.97;;;18.89;88.88
58373;BME280;44177;43.356;27.672;2023-06-22T04:10:35;98495.16;;;18.98;88.47
58373;BME280;44177;43.356;27.672;2023-06-22T04:13:01;98485.25;;;19.11;87.52
58373;BME280;44177;43.356;27.672;2023-06-22T04:15:26;98491.97;;;19.17;87.22
58373;BME280;44177;43.356;27.672;2023-06-22T04:17:54;98486.00;;;19.22;87.45
58373;BME280;44177;43.356;27.672;2023-06-22T04:20:19;98486.41;;;19.28;87.72
58373;BME280;44177;43.356;27.672;2023-06-22T04:22:44;98488.38;;;19.31;87.43
58373;BME280;44177;43.356;27.672;2023-06-22T04:25:11;98495.09;;;19.30;87.41
58373;BME280;44177;43.356;27.672;2023-06-22T04:27:36;98489.16;;;19.35;87.35
58373;BME280;44177;43.356;27.672;2023-06-22T04:30:06;98498.63;;;19.41;87.64
58373;BME280;44177;43.356;27.672;2023-06-22T04:32:32;98496.63;;;19.56;87.22
58373;BME280;44177;43.356;27.672;2023-06-22T04:34:58;98498.56;;;19.67;87.10
58373;BME280;44177;43.356;27.672;2023-06-22T04:37:25;98503.25;;;19.77;86.51
58373;BME280;44177;43.356;27.672;2023-06-22T04:39:51;98495.75;;;19.85;86.84
58373;BME280;44177;43.356;27.672;2023-06-22T04:42:16;98498.13;;;19.86;86.48
58373;BME280;44177;43.356;27.672;2023-06-22T04:44:42;98502.41;;;20.02;85.41
58373;BME280;44177;43.356;27.672;2023-06-22T04:47:07;98494.41;;;20.18;84.94
58373;BME280;44177;43.356;27.672;2023-06-22T04:49:34;98493.56;;;20.29;84.90
58373;BME280;44177;43.356;27.672;2023-06-22T04:52:04;98499.81;;;20.40;84.79
58373;BME280;44177;43.356;27.672;2023-06-22T04:54:30;98496.56;;;20.52;84.27
58373;BME280;44177;43.356;27.672;2023-06-22T04:57:01;98507.59;;;20.60;84.19
58373;BME280;44177;43.356;27.672;2023-06-22T04:59:27;98492.97;;;20.59;82.98
58373;BME280;44177;43.356;27.672;2023-06-22T05:01:59;98500.81;;;20.68;82.19
58373;BME280;44177;43.356;27.672;2023-06-22T05:04:26;98511.06;;;20.78;82.87
58373;BME280;44177;43.356;27.672;2023-06-22T05:06:52;98505.09;;;20.83;81.63
58373;BME280;44177;43.356;27.672;2023-06-22T05:09:18;98506.59;;;20.92;82.76
58373;BME280;44177;43.356;27.672;2023-06-22T05:11:47;98504.09;;;21.08;83.77
58373;BME280;44177;43.356;27.672;2023-06-22T05:14:12;98503.97;;;21.19;83.62
58373;BME280;44177;43.356;27.672;2023-06-22T05:16:38;98509.34;;;21.37;83.23
58373;BME280;44177;43.356;27.672;2023-06-22T05:19:04;98503.72;;;21.44;81.22
58373;BME280;44177;43.356;27.672;2023-06-22T05:21:30;98506.41;;;21.52;79.88
58373;BME280;44177;43.356;27.672;2023-06-22T05:23:57;98508.38;;;21.58;79.85
58373;BME280;44177;43.356;27.672;2023-06-22T05:26:28;98512.25;;;21.65;78.85
58373;BME280;44177;43.356;27.672;2023-06-22T05:28:54;98501.06;;;21.72;79.22
58373;BME280;44177;43.356;27.672;2023-06-22T05:31:20;98517.97;;;21.85;78.20
58373;BME280;44177;43.356;27.672;2023-06-22T05:33:46;98506.69;;;21.99;79.73
58373;BME280;44177;43.356;27.672;2023-06-22T05:36:12;98508.56;;;22.09;79.35
58373;BME280;44177;43.356;27.672;2023-06-22T05:38:39;98514.28;;;22.26;75.74
58373;BME280;44177;43.356;27.672;2023-06-22T05:41:04;98505.84;;;22.33;77.72
58373;BME280;44177;43.356;27.672;2023-06-22T05:43:30;98508.06;;;22.46;78.18
58373;BME280;44177;43.356;27.672;2023-06-22T05:45:55;98522.13;;;22.62;79.55
58373;BME280;44177;43.356;27.672;2023-06-22T05:48:21;98509.94;;;22.80;79.93
58373;BME280;44177;43.356;27.672;2023-06-22T05:50:46;98521.75;;;22.87;78.29
58373;BME280;44177;43.356;27.672;2023-06-22T05:53:12;98516.13;;;22.91;76.32
58373;BME280;44177;43.356;27.672;2023-06-22T05:55:37;98509.59;;;23.01;78.10
58373;BME280;44177;43.356;27.672;2023-06-22T05:58:03;98510.09;;;23.20;77.49
58373;BME280;44177;43.356;27.672;2023-06-22T06:00:29;98507.44;;;23.37;77.48
58373;BME280;44177;43.356;27.672;2023-06-22T06:02:54;98504.66;;;23.57;74.49
58373;BME280;44177;43.356;27.672;2023-06-22T06:05:20;98507.81;;;23.59;74.02
58373;BME280;44177;43.356;27.672;2023-06-22T06:07:46;98508.00;;;23.88;72.79
58373;BME280;44177;43.356;27.672;2023-06-22T06:10:12;98504.97;;;24.03;74.44
58373;BME280;44177;43.356;27.672;2023-06-22T06:12:38;98496.63;;;24.19;68.76
58373;BME280;44177;43.356;27.672;2023-06-22T06:15:04;98508.38;;;24.47;69.61
58373;BME280;44177;43.356;27.672;2023-06-22T06:17:30;98505.78;;;24.56;68.24
58373;BME280;44177;43.356;27.672;2023-06-22T06:19:56;98507.22;;;24.81;67.73
58373;BME280;44177;43.356;27.672;2023-06-22T06:22:21;98507.47;;;24.87;65.51
58373;BME280;44177;43.356;27.672;2023-06-22T06:24:49;98510.06;;;25.11;64.49
58373;BME280;44177;43.356;27.672;2023-06-22T06:27:14;98514.16;;;25.39;65.20
58373;BME280;44177;43.356;27.672;2023-06-22T06:29:40;98516.81;;;25.59;64.71
58373;BME280;44177;43.356;27.672;2023-06-22T06:32:05;98515.88;;;25.79;63.24
58373;BME280;44177;43.356;27.672;2023-06-22T06:34:31;98515.69;;;25.99;63.09
58373;BME280;44177;43.356;27.672;2023-06-22T06:36:58;98512.28;;;26.08;61.87
58373;BME280;44177;43.356;27.672;2023-06-22T06:39:23;98512.16;;;26.11;61.13
58373;BME280;44177;43.356;27.672;2023-06-22T06:41:50;98518.44;;;26.41;62.14
58373;BME280;44177;43.356;27.672;2023-06-22T06:44:15;98509.28;;;26.67;61.53
58373;BME280;44177;43.356;27.672;2023-06-22T06:46:40;98515.00;;;26.89;58.81
58373;BME280;44177;43.356;27.672;2023-06-22T06:49:07;98513.72;;;27.16;60.41
58373;BME280;44177;43.356;27.672;2023-06-22T06:51:32;98514.94;;;27.15;57.86
58373;BME280;44177;43.356;27.672;2023-06-22T06:53:58;98514.09;;;27.27;55.44
58373;BME280;44177;43.356;27.672;2023-06-22T06:56:23;98502.09;;;27.39;54.72
58373;BME280;44177;43.356;27.672;2023-06-22T06:58:50;98521.38;;;27.72;56.82
58373;BME280;44177;43.356;27.672;2023-06-22T07:01:16;98527.25;;;27.65;54.66
58373;BME280;44177;43.356;27.672;2023-06-22T07:03:41;98525.53;;;27.68;54.58
58373;BME280;44177;43.356;27.672;2023-06-22T07:06:08;98527.09;;;27.69;54.33
58373;BME280;44177;43.356;27.672;2023-06-22T07:08:33;98516.94;;;28.07;55.58
58373;BME280;44177;43.356;27.672;2023-06-22T07:11:00;98518.03;;;28.41;55.89
58373;BME280;44177;43.356;27.672;2023-06-22T07:13:26;98518.50;;;28.71;54.77
58373;BME280;44177;43.356;27.672;2023-06-22T07:15:51;98522.59;;;28.88;52.11
58373;BME280;44177;43.356;27.672;2023-06-22T07:18:17;98516.22;;;28.97;51.68
58373;BME280;44177;43.356;27.672;2023-06-22T07:20:42;98522.66;;;29.07;50.78
58373;BME280;44177;43.356;27.672;2023-06-22T07:23:07;98520.69;;;29.35;51.23
58373;BME280;44177;43.356;27.672;2023-06-22T07:25:33;98517.56;;;29.33;50.38
58373;BME280;44177;43.356;27.672;2023-06-22T07:28:03;98524.56;;;29.75;50.18
58373;BME280;44177;43.356;27.672;2023-06-22T07:30:30;98529.56;;;30.08;50.07
58373;BME280;44177;43.356;27.672;2023-06-22T07:32:56;98528.31;;;29.90;48.80
58373;BME280;44177;43.356;27.672;2023-06-22T07:35:23;98525.75;;;30.20;47.93
58373;BME280;44177;43.356;27.672;2023-06-22T07:37:48;98527.88;;;30.44;47.56
58373;BME280;44177;43.356;27.672;2023-06-22T07:40:14;98522.88;;;30.48;46.14
58373;BME280;44177;43.356;27.672;2023-06-22T07:42:39;98532.75;;;30.77;46.49
58373;BME280;44177;43.356;27.672;2023-06-22T07:45:05;98523.38;;;31.04;43.68
58373;BME280;44177;43.356;27.672;2023-06-22T07:47:33;98522.84;;;31.15;45.13
58373;BME280;44177;43.356;27.672;2023-06-22T07:50:01;98518.88;;;31.46;43.46
58373;BME280;44177;43.356;27.672;2023-06-22T07:52:30;98523.47;;;31.59;43.99
58373;BME280;44177;43.356;27.672;2023-06-22T07:54:55;98518.28;;;31.57;43.72
58373;BME280;44177;43.356;27.672;2023-06-22T07:57:21;98514.81;;;31.62;42.96
58373;BME280;44177;43.356;27.672;2023-06-22T07:59:47;98517.00;;;31.68;44.27
58373;BME280;44177;43.356;27.672;2023-06-22T08:02:12;98518.19;;;31.91;41.85
58373;BME280;44177;43.356;27.672;2023-06-22T08:04:38;98514.31;;;32.18;41.81
58373;BME280;44177;43.356;27.672;2023-06-22T08:07:04;98521.69;;;32.16;40.71
58373;BME280;44177;43.356;27.672;2023-06-22T08:09:32;98520.88;;;32.60;42.07
58373;BME280;44177;43.356;27.672;2023-06-22T08:11:59;98501.56;;;32.73;40.67
58373;BME280;44177;43.356;27.672;2023-06-22T08:14:25;98507.69;;;32.87;41.06
58373;BME280;44177;43.356;27.672;2023-06-22T08:16:51;98509.16;;;33.03;40.29
58373;BME280;44177;43.356;27.672;2023-06-22T08:19:17;98503.16;;;33.16;38.86
58373;BME280;44177;43.356;27.672;2023-06-22T08:21:43;98500.22;;;33.25;38.48
58373;BME280;44177;43.356;27.672;2023-06-22T08:24:09;98502.88;;;33.14;38.76
58373;BME280;44177;43.356;27.672;2023-06-22T08:26:34;98506.91;;;33.48;38.17
58373;BME280;44177;43.356;27.672;2023-06-22T08:29:04;98503.72;;;33.61;38.57
58373;BME280;44177;43.356;27.672;2023-06-22T08:31:31;98506.91;;;33.75;38.05
58373;BME280;44177;43.356;27.672;2023-06-22T08:33:58;98509.06;;;34.06;36.42
58373;BME280;44177;43.356;27.672;2023-06-22T08:36:24;98510.75;;;34.24;35.10
58373;BME280;44177;43.356;27.672;2023-06-22T08:38:50;98510.50;;;34.60;34.94
58373;BME280;44177;43.356;27.672;2023-06-22T08:41:17;98515.63;;;34.93;33.67
58373;BME280;44177;43.356;27.672;2023-06-22T08:43:43;98515.44;;;35.08;33.90
58373;BME280;44177;43.356;27.672;2023-06-22T08:46:09;98514.84;;;35.42;32.48
58373;BME280;44177;43.356;27.672;2023-06-22T08:48:35;98504.31;;;35.60;32.95
58373;BME280;44177;43.356;27.672;2023-06-22T08:51:01;98501.50;;;35.65;32.33
58373;BME280;44177;43.356;27.672;2023-06-22T08:53:27;98498.16;;;35.72;31.39
58373;BME280;44177;43.356;27.672;2023-06-22T08:55:53;98501.25;;;35.69;31.96
58373;BME280;44177;43.356;27.672;2023-06-22T08:58:18;98499.56;;;35.34;34.31
58373;BME280;44177;43.356;27.672;2023-06-22T09:00:45;98500.84;;;35.33;31.48
58373;BME280;44177;43.356;27.672;2023-06-22T09:03:10;98493.91;;;34.41;34.05
58373;BME280;44177;43.356;27.672;2023-06-22T09:05:37;98488.47;;;34.75;35.13
58373;BME280;44177;43.356;27.672;2023-06-22T09:08:02;98502.91;;;34.40;35.13
58373;BME280;44177;43.356;27.672;2023-06-22T09:10:28;98512.03;;;34.23;34.55
58373;BME280;44177;43.356;27.672;2023-06-22T09:12:53;98500.25;;;34.30;34.98
58373;BME280;44177;43.356;27.672;2023-06-22T09:15:19;98499.34;;;34.13;35.62
58373;BME280;44177;43.356;27.672;2023-06-22T09:17:44;98488.78;;;34.13;34.65
58373;BME280;44177;43.356;27.672;2023-06-22T09:20:11;98504.09;;;34.59;34.64
58373;BME280;44177;43.356;27.672;2023-06-22T09:22:37;98493.94;;;34.85;32.22
58373;BME280;44177;43.356;27.672;2023-06-22T09:25:04;98499.53;;;33.57;34.30
58373;BME280;44177;43.356;27.672;2023-06-22T09:27:30;98501.06;;;32.75;35.90
58373;BME280;44177;43.356;27.672;2023-06-22T09:29:55;98496.66;;;33.30;36.49
58373;BME280;44177;43.356;27.672;2023-06-22T09:32:23;98497.69;;;34.00;33.87
58373;BME280;44177;43.356;27.672;2023-06-22T09:34:49;98486.63;;;34.67;31.34
58373;BME280;44177;43.356;27.672;2023-06-22T09:37:14;98495.22;;;34.46;33.53
58373;BME280;44177;43.356;27.672;2023-06-22T09:39:39;98491.84;;;34.85;33.27
58373;BME280;44177;43.356;27.672;2023-06-22T09:42:05;98499.63;;;34.47;32.75
58373;BME280;44177;43.356;27.672;2023-06-22T09:44:31;98495.97;;;34.41;32.72
58373;BME280;44177;43.356;27.672;2023-06-22T09:46:57;98500.50;;;33.74;34.43
58373;BME280;44177;43.356;27.672;2023-06-22T09:49:22;98493.06;;;33.77;34.51
58373;BME280;44177;43.356;27.672;2023-06-22T09:51:47;98486.78;;;34.52;34.57
58373;BME280;44177;43.356;27.672;2023-06-22T09:54:15;98484.38;;;35.37;32.21
58373;BME280;44177;43.356;27.672;2023-06-22T09:56:40;98495.31;;;35.89;33.02
58373;BME280;44177;43.356;27.672;2023-06-22T09:59:05;98483.72;;;36.39;31.34
58373;BME280;44177;43.356;27.672;2023-06-22T10:01:31;98478.81;;;36.62;28.96
58373;BME280;44177;43.356;27.672;2023-06-22T10:03:56;98487.81;;;36.89;29.74
58373;BME280;44177;43.356;27.672;2023-06-22T10:06:22;98494.50;;;36.86;29.25
58373;BME280;44177;43.356;27.672;2023-06-22T10:08:53;98483.16;;;36.97;28.63
58373;BME280;44177;43.356;27.672;2023-06-22T10:11:18;98486.06;;;36.63;31.39
58373;BME280;44177;43.356;27.672;2023-06-22T10:13:44;98498.00;;;35.33;33.17
58373;BME280;44177;43.356;27.672;2023-06-22T10:16:09;98482.97;;;36.32;31.92
58373;BME280;44177;43.356;27.672;2023-06-22T10:18:35;98491.47;;;36.61;31.34
58373;BME280;44177;43.356;27.672;2023-06-22T10:21:00;98484.72;;;36.75;28.71
58373;BME280;44177;43.356;27.672;2023-06-22T10:23:26;98473.50;;;37.11;29.95
58373;BME280;44177;43.356;27.672;2023-06-22T10:25:51;98486.50;;;36.95;28.76
58373;BME280;44177;43.356;27.672;2023-06-22T10:28:17;98482.34;;;36.96;29.40
58373;BME280;44177;43.356;27.672;2023-06-22T10:30:43;98476.34;;;37.11;28.74
58373;BME280;44177;43.356;27.672;2023-06-22T10:33:12;98470.47;;;37.51;29.49
58373;BME280;44177;43.356;27.672;2023-06-22T10:35:38;98471.97;;;37.64;27.70
58373;BME280;44177;43.356;27.672;2023-06-22T10:38:04;98468.16;;;37.50;28.73
58373;BME280;44177;43.356;27.672;2023-06-22T10:40:30;98460.97;;;37.37;28.33
58373;BME280;44177;43.356;27.672;2023-06-22T10:42:55;98468.19;;;37.86;27.95
58373;BME280;44177;43.356;27.672;2023-06-22T10:45:21;98462.16;;;37.59;28.51
58373;BME280;44177;43.356;27.672;2023-06-22T10:47:46;98471.84;;;36.51;28.81
58373;BME280;44177;43.356;27.672;2023-06-22T10:50:13;98460.25;;;36.04;30.96
58373;BME280;44177;43.356;27.672;2023-06-22T10:52:39;98463.25;;;36.80;29.30
58373;BME280;44177;43.356;27.672;2023-06-22T10:55:05;98453.25;;;37.26;28.62
58373;BME280;44177;43.356;27.672;2023-06-22T10:57:31;98457.69;;;36.40;29.95
58373;BME280;44177;43.356;27.672;2023-06-22T10:59:56;98458.09;;;36.78;29.90
58373;BME280;44177;43.356;27.672;2023-06-22T11:02:23;98449.16;;;37.22;28.44
58373;BME280;44177;43.356;27.672;2023-06-22T11:04:49;98446.53;;;37.29;26.77
58373;BME280;44177;43.356;27.672;2023-06-22T11:07:15;98445.97;;;37.42;28.53
58373;BME280;44177;43.356;27.672;2023-06-22T11:09:43;98448.50;;;37.52;29.19
58373;BME280;44177;43.356;27.672;2023-06-22T11:12:08;98438.94;;;37.91;27.79
58373;BME280;44177;43.356;27.672;2023-06-22T11:14:34;98441.66;;;38.02;24.91
58373;BME280;44177;43.356;27.672;2023-06-22T11:16:59;98436.88;;;38.16;26.33
58373;BME280;44177;43.356;27.672;2023-06-22T11:19:25;98438.09;;;38.27;24.47
58373;BME280;44177;43.356;27.672;2023-06-22T11:21:50;98435.19;;;37.66;27.75
58373;BME280;44177;43.356;27.672;2023-06-22T11:24:16;98448.84;;;36.61;29.48
58373;BME280;44177;43.356;27.672;2023-06-22T11:26:42;98439.47;;;36.94;27.91
58373;BME280;44177;43.356;27.672;2023-06-22T11:29:07;98438.69;;;37.00;27.75
58373;BME280;44177;43.356;27.672;2023-06-22T11:31:34;98436.56;;;37.59;26.97
58373;BME280;44177;43.356;27.672;2023-06-22T11:34:00;98437.22;;;37.76;28.75
58373;BME280;44177;43.356;27.672;2023-06-22T11:36:26;98433.94;;;37.97;27.07
58373;BME280;44177;43.356;27.672;2023-06-22T11:38:51;98439.91;;;38.24;27.86
58373;BME280;44177;43.356;27.672;2023-06-22T11:41:16;98438.53;;;38.36;24.68
58373;BME280;44177;43.356;27.672;2023-06-22T11:43:42;98429.97;;;38.61;25.76
58373;BME280;44177;43.356;27.672;2023-06-22T11:46:08;98433.13;;;38.33;24.74
58373;BME280;44177;43.356;27.672;2023-06-22T11:48:33;98438.47;;;37.39;27.75
58373;BME280;44177;43.356;27.672;2023-06-22T11:50:58;98436.16;;;37.32;27.13
58373;BME280;44177;43.356;27.672;2023-06-22T11:53:25;98428.38;;;37.80;25.74
58373;BME280;44177;43.356;27.672;2023-06-22T11:55:51;98435.34;;;38.15;26.55
58373;BME280;44177;43.356;27.672;2023-06-22T11:58:19;98422.72;;;38.60;25.81
58373;BME280;44177;43.356;27.672;2023-06-22T12:00:44;98426.56;;;38.63;24.77
58373;BME280;44177;43.356;27.672;2023-06-22T12:03:10;98419.94;;;38.98;26.45
58373;BME280;44177;43.356;27.672;2023-06-22T12:05:36;98408.56;;;38.74;23.88
58373;BME280;44177;43.356;27.672;2023-06-22T12:08:02;98416.06;;;38.27;24.70
58373;BME280;44177;43.356;27.672;2023-06-22T12:10:27;98408.69;;;38.43;25.29
58373;BME280;44177;43.356;27.672;2023-06-22T12:12:56;98401.81;;;38.27;24.90
58373;BME280;44177;43.356;27.672;2023-06-22T12:15:25;98407.16;;;38.12;25.51
58373;BME280;44177;43.356;27.672;2023-06-22T12:17:51;98411.16;;;38.28;25.23
58373;BME280;44177;43.356;27.672;2023-06-22T12:20:16;98415.59;;;38.48;25.89
58373;BME280;44177;43.356;27.672;2023-06-22T12:22:42;98414.50;;;38.26;23.52
58373;BME280;44177;43.356;27.672;2023-06-22T12:25:08;98412.88;;;38.61;24.40
58373;BME280;44177;43.356;27.672;2023-06-22T12:27:34;98416.66;;;37.11;28.25
58373;BME280;44177;43.356;27.672;2023-06-22T12:30:00;98410.72;;;36.16;31.27
58373;BME280;44177;43.356;27.672;2023-06-22T12:32:25;98406.50;;;35.26;33.05
58373;BME280;44177;43.356;27.672;2023-06-22T12:34:51;98415.13;;;34.83;33.70
58373;BME280;44177;43.356;27.672;2023-06-22T12:37:17;98404.22;;;33.89;35.54
58373;BME280;44177;43.356;27.672;2023-06-22T12:39:43;98404.47;;;34.23;37.05
58373;BME280;44177;43.356;27.672;2023-06-22T12:42:09;98395.78;;;34.87;34.63
58373;BME280;44177;43.356;27.672;2023-06-22T12:44:35;98391.56;;;35.37;35.55
58373;BME280;44177;43.356;27.672;2023-06-22T12:47:00;98395.13;;;35.21;33.74
58373;BME280;44177;43.356;27.672;2023-06-22T12:49:26;98399.25;;;33.84;34.57
58373;BME280;44177;43.356;27.672;2023-06-22T12:51:52;98393.53;;;33.73;34.97